createdAt,value
2017-11-21T01:09:09.722Z,6.40
2017-11-21T01:11:38.028Z,6.30
2017-11-21T01:14:06.356Z,6.40
2017-11-21T01:16:34.657Z,6.40
2017-11-21T01:19:02.979Z,6.40
2017-11-21T01:24:00.846Z,6.20
2017-11-21T01:26:29.208Z,6.30
2017-11-21T01:28:57.726Z,6.30
2017-11-21T01:31:27.051Z,6.30
2017-11-21T01:33:55.364Z,6.30
2017-11-21T01:36:23.680Z,6.30
2017-11-21T01:38:51.974Z,6.20
2017-11-21T01:41:21.061Z,6.30
2017-11-21T01:43:50.115Z,6.30
2017-11-21T01:46:18.442Z,6.20
2017-11-21T01:48:46.750Z,6.30
2017-11-21T01:51:15.083Z,6.30
2017-11-21T01:53:44.134Z,6.30
2017-11-21T01:56:12.451Z,6.30
2017-11-21T01:58:41.532Z,6.30
2017-11-21T02:01:10.218Z,6.30
2017-11-21T02:03:39.284Z,6.30
2017-11-21T02:06:07.571Z,6.30
2017-11-21T02:08:35.916Z,6.30
2017-11-21T02:11:04.219Z,6.30
2017-11-21T02:13:32.542Z,6.30
2017-11-21T02:16:00.850Z,6.30
2017-11-21T02:18:29.177Z,6.30
2017-11-21T02:20:58.255Z,6.40
2017-11-21T02:23:27.375Z,6.40
2017-11-21T02:25:56.439Z,6.40
2017-11-21T02:28:24.781Z,6.30
2017-11-21T02:30:53.081Z,6.40
2017-11-21T02:33:21.384Z,6.50
2017-11-21T02:35:49.710Z,6.50
2017-11-21T02:38:18.015Z,6.60
2017-11-21T02:40:46.341Z,6.60
2017-11-21T02:43:14.818Z,6.60
2017-11-21T02:45:43.909Z,6.60
2017-11-21T02:48:13.004Z,6.60
2017-11-21T02:50:41.351Z,6.60
2017-11-21T02:53:09.652Z,6.70
2017-11-21T02:55:38.721Z,6.70
2017-11-21T02:58:07.043Z,6.70
2017-11-21T03:00:35.360Z,6.80
2017-11-21T03:05:33.229Z,6.80
2017-11-21T03:08:01.576Z,6.90
2017-11-21T03:10:29.879Z,6.90
2017-11-21T03:12:58.207Z,6.90
2017-11-21T03:15:27.272Z,7.00
2017-11-21T03:17:55.605Z,6.90
2017-11-21T03:20:35.833Z,7.00
2017-11-21T03:23:16.195Z,7.00
2017-11-21T03:25:57.241Z,7.00
2017-11-21T03:28:37.460Z,7.00
2017-11-21T03:31:05.762Z,7.10
2017-11-21T03:33:34.066Z,7.10
2017-11-21T03:36:03.164Z,7.20
2017-11-21T03:38:31.539Z,7.10
2017-11-21T03:40:59.891Z,7.20
2017-11-21T03:43:28.996Z,7.30
2017-11-21T03:45:57.315Z,7.30
2017-11-21T03:48:25.615Z,7.40
2017-11-21T03:50:53.958Z,7.40
2017-11-21T03:53:23.010Z,7.50
2017-11-21T03:55:51.528Z,7.40
2017-11-21T03:58:20.615Z,7.60
2017-11-21T04:00:54.468Z,7.50
2017-11-21T04:03:22.769Z,7.50
2017-11-21T04:05:51.075Z,7.50
2017-11-21T04:08:19.397Z,7.50
2017-11-21T04:10:47.731Z,7.50
2017-11-21T04:13:16.068Z,7.60
2017-11-21T04:15:44.378Z,7.60
2017-11-21T04:18:12.702Z,7.60
2017-11-21T04:43:09.640Z,8.00
2017-11-21T04:45:37.965Z,8.00
2017-11-21T04:55:34.968Z,8.30
2017-11-21T04:58:03.262Z,8.20
2017-11-21T05:00:31.539Z,8.20
2017-11-21T05:02:59.863Z,8.20
2017-11-21T05:05:28.171Z,8.20
2017-11-21T05:07:56.474Z,8.20
2017-11-21T05:10:24.773Z,8.30
2017-11-21T05:12:53.152Z,8.30
2017-11-21T05:15:21.459Z,8.30
2017-11-21T05:17:49.767Z,8.40
2017-11-21T05:20:18.065Z,8.40
2017-11-21T05:22:46.390Z,8.50
2017-11-21T05:25:14.718Z,8.50
2017-11-21T05:27:43.022Z,8.50
2017-11-21T05:30:12.928Z,8.50
2017-11-21T05:32:53.060Z,8.50
2017-11-21T05:35:21.386Z,8.50
2017-11-21T05:37:49.684Z,8.50
2017-11-21T05:40:17.992Z,8.60
2017-11-21T05:42:46.293Z,8.60
2017-11-21T05:45:15.401Z,8.70
2017-11-21T05:47:44.468Z,8.80
2017-11-21T06:00:11.087Z,9.10
2017-11-21T06:02:39.431Z,9.10
2017-11-21T06:05:07.715Z,9.20
2017-11-21T06:07:36.025Z,9.20
2017-11-21T06:10:04.340Z,9.30
2017-11-21T06:12:32.701Z,9.30
2017-11-21T06:15:01.025Z,9.40
2017-11-21T06:17:29.335Z,9.40
2017-11-21T06:19:57.635Z,9.40
2017-11-21T06:22:25.960Z,9.40
2017-11-21T06:24:55.030Z,9.40
2017-11-21T06:27:23.369Z,9.40
2017-11-21T06:29:51.673Z,9.50
2017-11-21T06:32:20.020Z,9.50
2017-11-21T06:34:49.058Z,9.60
2017-11-21T06:37:18.147Z,9.60
2017-11-21T06:39:47.263Z,9.60
2017-11-21T06:42:16.381Z,9.60
2017-11-21T06:44:45.480Z,9.60
2017-11-21T06:47:13.896Z,9.60
2017-11-21T06:49:42.231Z,9.60
2017-11-21T06:52:11.296Z,9.60
2017-11-21T06:54:39.622Z,9.60
2017-11-21T06:57:07.975Z,9.70
2017-11-21T06:59:36.280Z,9.60
2017-11-21T07:02:04.575Z,9.70
2017-11-21T07:04:32.903Z,9.70
2017-11-21T07:07:01.977Z,9.70
2017-11-21T07:09:30.265Z,9.70
2017-11-21T07:11:59.363Z,9.80
2017-11-21T07:14:28.423Z,9.80
2017-11-21T07:16:57.558Z,9.80
2017-11-21T07:19:26.658Z,9.90
2017-11-21T07:21:54.985Z,9.80
2017-11-21T07:24:23.280Z,9.80
2017-11-21T07:26:51.605Z,9.90
2017-11-21T07:29:19.918Z,9.90
2017-11-21T07:31:48.262Z,9.90
2017-11-21T07:34:17.381Z,9.90
2017-11-21T07:36:45.670Z,9.90
2017-11-21T07:39:14.016Z,9.90
2017-11-21T07:41:43.392Z,10.00
2017-11-21T07:44:11.729Z,9.90
2017-11-21T07:46:40.029Z,10.00
2017-11-21T07:49:09.123Z,10.10
2017-11-21T07:51:37.424Z,10.00
2017-11-21T07:54:05.758Z,10.10
2017-11-21T07:56:34.049Z,10.10
2017-11-21T07:59:03.176Z,10.20
2017-11-21T08:01:31.487Z,10.10
2017-11-21T08:03:59.820Z,10.20
2017-11-21T08:06:28.213Z,10.20
2017-11-21T08:08:56.509Z,10.20
2017-11-21T08:11:24.835Z,10.20
2017-11-21T08:13:53.923Z,10.30
2017-11-21T08:16:22.252Z,10.20
2017-11-21T08:18:50.559Z,10.30
2017-11-21T08:21:18.897Z,10.20
2017-11-21T08:23:47.198Z,10.20
2017-11-21T08:26:15.540Z,10.20
2017-11-21T08:28:43.859Z,10.20
2017-11-21T08:31:12.151Z,10.20
2017-11-21T08:33:41.263Z,10.10
2017-11-21T08:36:10.367Z,10.20
2017-11-21T08:38:38.708Z,10.10
2017-11-21T08:41:07.007Z,10.20
2017-11-21T08:43:36.104Z,10.20
2017-11-21T08:46:05.159Z,10.30
2017-11-21T08:48:33.500Z,10.20
2017-11-21T08:51:01.819Z,10.20
2017-11-21T08:53:30.164Z,10.30
2017-11-21T08:55:58.469Z,10.30
2017-11-21T08:58:26.775Z,10.20
2017-11-21T09:00:55.874Z,10.10
2017-11-21T09:03:24.224Z,10.10
2017-11-21T09:05:52.578Z,10.10
2017-11-21T09:08:20.891Z,10.00
2017-11-21T09:10:49.221Z,9.90
2017-11-21T09:13:17.558Z,9.90
2017-11-21T09:15:46.667Z,10.00
2017-11-21T09:18:14.981Z,9.90
2017-11-21T09:20:43.290Z,10.00
2017-11-21T09:23:11.647Z,10.10
2017-11-21T09:25:39.953Z,10.20
2017-11-21T09:28:09.057Z,10.10
2017-11-21T09:30:38.123Z,10.10
2017-11-21T09:33:06.446Z,10.10
2017-11-21T09:35:34.762Z,10.10
2017-11-21T09:38:03.077Z,10.10
2017-11-21T09:40:31.379Z,10.10
2017-11-21T09:42:59.712Z,10.10
2017-11-21T09:45:28.036Z,10.10
2017-11-21T09:47:57.111Z,10.30
2017-11-21T09:50:26.176Z,10.40
2017-11-21T09:52:54.563Z,10.30
2017-11-21T09:55:22.856Z,10.40
2017-11-21T09:57:51.940Z,10.50
2017-11-21T10:00:21.044Z,10.50
2017-11-21T10:02:49.402Z,10.50
2017-11-21T10:05:17.723Z,10.60
2017-11-21T10:07:46.040Z,10.50
2017-11-21T10:10:14.370Z,10.60
2017-11-21T14:22:18.694Z,11.90
2017-11-21T14:24:47.007Z,12.00
2017-11-21T14:27:15.375Z,12.10
2017-11-21T14:29:43.756Z,12.10
2017-11-21T14:32:12.086Z,12.10
2017-11-21T14:34:40.474Z,12.10
2017-11-21T14:37:08.791Z,12.10
2017-11-21T14:39:37.171Z,12.10
2017-11-21T14:42:05.476Z,12.10
2017-11-21T14:44:33.823Z,12.10
2017-11-21T14:47:02.722Z,12.10
2017-11-21T14:49:31.133Z,12.10
2017-11-21T14:51:59.488Z,12.20
2017-11-21T14:54:27.921Z,12.10
2017-11-21T14:56:56.296Z,12.10
2017-11-21T14:59:24.623Z,12.10
2017-11-21T15:01:52.948Z,12.10
2017-11-21T15:04:21.324Z,12.00
2017-11-21T15:06:49.740Z,12.00
2017-11-21T15:09:18.134Z,11.90
2017-11-21T15:11:46.481Z,11.90
2017-11-21T15:14:14.804Z,11.80
2017-11-21T15:16:43.184Z,11.70
2017-11-21T15:19:11.479Z,11.90
2017-11-21T15:21:40.623Z,11.90
2017-11-21T15:24:08.948Z,11.90
2017-11-21T15:26:37.326Z,11.90
2017-11-21T15:29:05.674Z,12.00
2017-11-21T15:31:34.215Z,11.90
2017-11-21T15:34:02.564Z,12.00
2017-11-21T15:36:30.876Z,12.00
2017-11-21T15:38:59.232Z,12.10
2017-11-21T15:41:27.560Z,12.10
2017-11-21T15:43:55.897Z,12.10
2017-11-21T15:46:24.215Z,12.10
2017-11-21T15:48:52.567Z,12.10
2017-11-21T15:51:20.890Z,12.10
2017-11-21T15:53:49.976Z,12.00
2017-11-21T15:56:19.104Z,12.00
2017-11-21T15:58:47.447Z,12.00
2017-11-21T16:01:16.551Z,12.00
2017-11-21T16:03:44.865Z,12.00
2017-11-21T16:06:13.228Z,12.10
2017-11-21T16:08:41.566Z,12.10
2017-11-21T16:11:09.865Z,12.10
2017-11-21T16:13:38.238Z,12.10
2017-11-21T16:16:06.631Z,12.10
2017-11-21T16:18:34.982Z,12.00
2017-11-21T16:21:03.335Z,12.10
2017-11-21T16:23:31.655Z,12.10
2017-11-21T16:26:00.784Z,12.00
2017-11-21T16:28:29.139Z,12.00
2017-11-21T16:30:57.443Z,12.00
2017-11-21T16:33:25.815Z,12.00
2017-11-21T16:35:54.119Z,11.90
2017-11-21T16:38:23.499Z,12.00
2017-11-21T16:40:51.919Z,11.90
2017-11-21T16:43:21.000Z,11.90
2017-11-21T16:45:49.583Z,11.80
2017-11-21T16:48:18.906Z,11.80
2017-11-21T16:50:48.004Z,11.80
2017-11-21T16:53:17.212Z,11.70
2017-11-21T16:55:45.554Z,11.70
2017-11-21T16:58:14.899Z,11.70
2017-11-21T17:00:43.677Z,11.60
2017-11-21T17:03:12.006Z,11.60
2017-11-21T17:05:40.405Z,11.60
2017-11-21T17:08:09.509Z,11.70
2017-11-21T17:10:37.848Z,11.60
2017-11-21T17:13:06.193Z,11.70
2017-11-21T17:15:34.523Z,11.70
2017-11-21T17:18:02.890Z,11.70
2017-11-21T17:20:31.219Z,11.70
2017-11-21T17:22:59.575Z,11.70
2017-11-21T17:25:27.912Z,11.70
2017-11-21T17:27:56.253Z,11.70
2017-11-21T17:30:24.567Z,11.70
2017-11-21T17:32:52.914Z,11.60
2017-11-21T17:35:21.254Z,11.50
2017-11-21T17:37:49.595Z,11.50
2017-11-21T17:40:17.969Z,11.40
2017-11-21T17:42:46.528Z,11.50
2017-11-21T17:45:14.893Z,11.50
2017-11-21T17:47:43.531Z,11.50
2017-11-21T17:50:11.919Z,11.40
2017-11-21T17:52:40.317Z,11.50
2017-11-21T17:55:08.671Z,11.40
2017-11-21T17:57:36.991Z,11.40
2017-11-21T18:00:05.876Z,11.40
2017-11-21T18:02:34.663Z,11.50
2017-11-21T18:05:03.752Z,11.50
2017-11-21T18:07:32.847Z,11.50
2017-11-21T18:10:01.485Z,11.50
2017-11-21T18:12:29.811Z,11.60
2017-11-21T18:14:58.145Z,11.60
2017-11-21T18:17:26.497Z,11.60
2017-11-21T18:19:54.837Z,11.60
2017-11-21T18:22:23.967Z,11.60
2017-11-21T18:24:52.314Z,11.60
2017-11-21T18:27:20.685Z,11.60
2017-11-21T18:29:49.298Z,11.60
2017-11-21T18:32:17.701Z,11.60
2017-11-21T18:34:46.428Z,11.60
2017-11-21T18:37:14.812Z,11.60
2017-11-21T18:39:43.906Z,11.60
2017-11-21T18:42:12.247Z,11.50
2017-11-21T18:44:40.602Z,11.50
2017-11-21T18:47:08.914Z,11.60
2017-11-21T18:49:37.248Z,11.60
2017-11-21T18:52:05.562Z,11.60
2017-11-21T18:54:35.608Z,11.50
2017-11-21T18:57:03.946Z,11.50
2017-11-21T18:59:32.271Z,11.60
2017-11-21T19:02:00.599Z,11.60
2017-11-21T19:04:28.910Z,11.60
2017-11-21T19:06:57.248Z,11.50
2017-11-21T19:09:25.568Z,11.50
2017-11-21T19:11:53.946Z,11.50
2017-11-21T19:14:22.303Z,11.50
2017-11-21T19:16:51.358Z,11.60
2017-11-21T19:19:19.727Z,11.60
2017-11-21T19:21:48.557Z,11.60
2017-11-21T19:24:17.022Z,11.60
2017-11-21T19:26:45.439Z,11.60
2017-11-21T19:29:14.554Z,11.60
2017-11-21T19:31:44.805Z,11.60
2017-11-21T19:34:14.084Z,11.60
2017-11-21T19:36:42.451Z,11.50
2017-11-21T19:39:11.758Z,11.40
2017-11-21T19:41:40.113Z,11.40
2017-11-21T19:44:08.527Z,11.30
2017-11-21T19:46:36.872Z,11.30
2017-11-21T19:49:07.954Z,11.20
2017-11-21T19:51:41.519Z,11.20
2017-11-21T19:54:09.863Z,11.20
2017-11-21T19:56:38.191Z,11.20
2017-11-21T19:59:06.513Z,11.20
2017-11-21T20:01:34.879Z,11.20
2017-11-21T20:04:03.264Z,11.10
2017-11-21T20:06:31.608Z,11.10
2017-11-21T20:09:00.021Z,11.10
2017-11-21T20:11:29.168Z,11.00
2017-11-21T20:13:58.227Z,11.00
2017-11-21T20:16:26.603Z,11.00
2017-11-21T20:18:54.931Z,11.00
2017-11-21T20:21:23.244Z,11.00
2017-11-21T20:23:51.566Z,11.00
2017-11-21T20:26:20.743Z,10.90
2017-11-21T20:28:49.844Z,11.00
2017-11-21T20:31:18.935Z,11.00
2017-11-21T20:33:47.301Z,10.90
2017-11-21T20:36:16.428Z,11.00
2017-11-21T20:38:44.836Z,11.00
2017-11-21T20:41:13.157Z,11.00
2017-11-21T20:43:41.488Z,11.00
2017-11-21T20:46:09.800Z,11.00
2017-11-21T20:48:38.160Z,11.00
2017-11-21T20:51:06.524Z,11.00
2017-11-21T20:53:34.864Z,10.90
2017-11-21T20:56:03.937Z,11.00
2017-11-21T20:58:33.391Z,10.90
2017-11-21T21:01:01.760Z,11.00
2017-11-21T21:03:30.098Z,11.00
2017-11-21T21:05:59.246Z,11.00
2017-11-21T21:08:27.611Z,10.90
2017-11-21T21:10:56.104Z,11.00
2017-11-21T21:13:25.344Z,11.00
2017-11-21T21:15:53.669Z,11.00
2017-11-21T21:18:22.090Z,11.00
2017-11-21T21:20:50.404Z,11.00
2017-11-21T21:23:18.773Z,11.00
2017-11-21T21:25:47.272Z,11.00
2017-11-21T21:28:15.594Z,11.00
2017-11-21T21:30:43.951Z,11.00
2017-11-21T21:33:12.316Z,11.00
2017-11-21T21:35:40.647Z,11.00
2017-11-21T21:38:09.782Z,11.00
2017-11-21T21:40:38.449Z,11.00
2017-11-21T21:43:07.519Z,11.00
2017-11-21T21:45:35.897Z,11.00
2017-11-21T21:48:04.235Z,11.00
2017-11-21T21:50:32.550Z,11.00
2017-11-21T21:53:00.934Z,11.00
2017-11-21T21:55:29.231Z,11.00
2017-11-21T21:57:58.345Z,10.90
2017-11-21T22:00:26.729Z,10.90
2017-11-21T22:02:55.049Z,10.90
2017-11-21T22:05:23.403Z,11.00
2017-11-21T22:07:51.718Z,10.90
2017-11-21T22:10:20.820Z,11.00
2017-11-21T22:12:49.888Z,11.00
2017-11-21T22:15:18.227Z,11.00
2017-11-21T22:17:46.551Z,11.10
2017-11-21T22:20:14.955Z,11.10
2017-11-21T22:22:44.135Z,11.10
2017-11-21T22:25:13.248Z,11.10
2017-11-21T22:27:42.671Z,11.20
2017-11-21T22:30:10.981Z,11.10
2017-11-21T22:32:39.327Z,11.20
2017-11-21T22:35:07.712Z,11.20
2017-11-21T22:37:36.024Z,11.20
2017-11-21T22:40:04.319Z,11.20
2017-11-21T22:42:33.430Z,11.20
2017-11-21T22:45:01.739Z,11.20
2017-11-21T22:47:30.056Z,11.30
2017-11-21T22:49:58.404Z,11.30
2017-11-21T22:52:26.708Z,11.30
2017-11-21T22:54:56.246Z,11.30
2017-11-21T22:57:25.352Z,11.40
2017-11-21T22:59:53.672Z,11.30
2017-11-21T23:02:22.767Z,11.30
2017-11-21T23:04:51.111Z,11.30
2017-11-21T23:07:19.419Z,11.30
2017-11-21T23:09:47.756Z,11.30
2017-11-21T23:12:16.067Z,11.30
2017-11-21T23:14:44.429Z,11.30
2017-11-21T23:17:12.792Z,11.30
2017-11-21T23:19:41.095Z,11.30
2017-11-21T23:22:09.443Z,11.30
2017-11-21T23:24:37.754Z,11.30
2017-11-21T23:27:06.045Z,11.30
2017-11-21T23:29:35.178Z,11.20
2017-11-21T23:32:03.516Z,11.20
2017-11-21T23:34:32.636Z,11.30
2017-11-21T23:37:01.696Z,11.30
2017-11-21T23:39:30.025Z,11.30
2017-11-21T23:41:58.358Z,11.30
2017-11-21T23:44:28.163Z,11.30
2017-11-21T23:46:56.513Z,11.20
2017-11-21T23:49:24.803Z,11.30
2017-11-21T23:51:53.150Z,11.30
2017-11-21T23:54:21.491Z,11.30
2017-11-21T23:56:49.809Z,11.30
2017-11-21T23:59:18.136Z,11.30
